createdAt,value
2024-04-30T00:00:51.373Z,1718.00
2024-04-30T00:01:51.369Z,1718.00
2024-04-30T00:02:51.287Z,1713.00
2024-04-30T00:03:51.319Z,1716.00
2024-04-30T00:04:51.402Z,1720.00
2024-04-30T00:05:51.360Z,1721.00
2024-04-30T00:06:51.297Z,1711.00
2024-04-30T00:07:51.374Z,1713.00
2024-04-30T00:08:51.301Z,1724.00
2024-04-30T00:09:51.306Z,1721.00
2024-04-30T00:10:51.386Z,1724.00
2024-04-30T00:11:51.410Z,1714.00
2024-04-30T00:12:51.410Z,1711.00
2024-04-30T00:13:51.339Z,1710.00
2024-04-30T00:14:51.348Z,1718.00
2024-04-30T00:15:51.367Z,1708.00
2024-04-30T00:16:51.405Z,1709.00
2024-04-30T00:17:51.427Z,1710.00
2024-04-30T00:18:51.366Z,1710.00
2024-04-30T00:19:51.545Z,1713.00
2024-04-30T00:20:51.428Z,1703.00
2024-04-30T00:21:51.407Z,1708.00
2024-04-30T00:22:51.401Z,1700.00
2024-04-30T00:23:51.487Z,1711.00
2024-04-30T00:24:51.429Z,1707.00
2024-04-30T00:25:51.413Z,1698.00
2024-04-30T00:26:51.433Z,1707.00
2024-04-30T00:27:51.493Z,1707.00
2024-04-30T00:28:51.460Z,1709.00
2024-04-30T00:29:51.485Z,1714.00
2024-04-30T00:30:51.469Z,1719.00
2024-04-30T00:31:51.501Z,1708.00
2024-04-30T00:32:51.609Z,1726.00
2024-04-30T00:33:51.557Z,1722.00
2024-04-30T00:34:51.547Z,1730.00
2024-04-30T00:35:51.539Z,1732.00
2024-04-30T00:36:51.500Z,1724.00
2024-04-30T00:37:51.554Z,1728.00
2024-04-30T00:38:51.559Z,1742.00
2024-04-30T00:39:51.597Z,1744.00
2024-04-30T00:40:51.680Z,1747.00
2024-04-30T00:41:51.637Z,1739.00
2024-04-30T00:42:51.642Z,1737.00
2024-04-30T00:43:51.656Z,1747.00
2024-04-30T00:44:51.657Z,1758.00
2024-04-30T00:45:51.704Z,1742.00
2024-04-30T00:46:51.710Z,1749.00
2024-04-30T00:47:51.843Z,1761.00
2024-04-30T00:48:51.779Z,1778.00
2024-04-30T00:49:51.733Z,1768.00
2024-04-30T00:50:51.782Z,1771.00
2024-04-30T00:51:51.804Z,1768.00
2024-04-30T00:52:51.770Z,1773.00
2024-04-30T00:53:51.765Z,1770.00
2024-04-30T00:54:51.800Z,1774.00
2024-04-30T00:55:51.831Z,1770.00
2024-04-30T00:56:51.876Z,1773.00
2024-04-30T00:57:51.931Z,1779.00
2024-04-30T00:58:51.900Z,1786.00
2024-04-30T00:59:51.926Z,1785.00
2024-04-30T01:00:51.948Z,1780.00
2024-04-30T01:01:51.908Z,1779.00
2024-04-30T01:02:51.929Z,1778.00
2024-04-30T01:03:51.945Z,1787.00
2024-04-30T01:04:51.950Z,1789.00
2024-04-30T01:05:52.055Z,1804.00
2024-04-30T01:06:52.006Z,1797.00
2024-04-30T01:07:52.053Z,1795.00
2024-04-30T01:08:52.078Z,1805.00
2024-04-30T01:09:52.010Z,1790.00
2024-04-30T01:10:52.035Z,1789.00
2024-04-30T01:11:52.118Z,1790.00
2024-04-30T01:12:52.101Z,1793.00
2024-04-30T01:13:52.064Z,1797.00
2024-04-30T01:14:52.112Z,1792.00
2024-04-30T01:15:52.073Z,1803.00
2024-04-30T01:16:52.137Z,1796.00
2024-04-30T01:17:52.160Z,1806.00
2024-04-30T01:18:52.135Z,1802.00
2024-04-30T01:19:52.147Z,1808.00
2024-04-30T01:20:52.170Z,1803.00
2024-04-30T01:21:52.248Z,1802.00
2024-04-30T01:22:52.221Z,1808.00
2024-04-30T01:23:52.261Z,1809.00
2024-04-30T01:24:52.263Z,1809.00
2024-04-30T01:25:52.336Z,1809.00
2024-04-30T01:26:52.809Z,1798.00
2024-04-30T01:27:52.261Z,1811.00
2024-04-30T01:28:52.285Z,1814.00
2024-04-30T01:29:52.321Z,1807.00
2024-04-30T01:30:52.356Z,1814.00
2024-04-30T01:31:52.364Z,1824.00
2024-04-30T01:32:52.443Z,1813.00
2024-04-30T01:33:52.350Z,1805.00
2024-04-30T01:34:52.351Z,1825.00
2024-04-30T01:35:52.410Z,1806.00
2024-04-30T01:36:52.422Z,1812.00
2024-04-30T01:37:52.481Z,1823.00
2024-04-30T01:38:52.411Z,1813.00
2024-04-30T01:39:52.429Z,1819.00
2024-04-30T01:40:52.455Z,1819.00
2024-04-30T01:41:52.458Z,1819.00
2024-04-30T01:42:52.514Z,1818.00
2024-04-30T01:43:52.543Z,1818.00
2024-04-30T01:44:52.534Z,1810.00
2024-04-30T01:45:52.563Z,1812.00
2024-04-30T01:46:52.539Z,1818.00
2024-04-30T01:47:52.601Z,1817.00
2024-04-30T01:48:52.568Z,1812.00
2024-04-30T01:49:52.566Z,1823.00
2024-04-30T01:50:52.627Z,1812.00
2024-04-30T01:51:52.635Z,1815.00
2024-04-30T01:52:52.640Z,1821.00
2024-04-30T01:53:52.633Z,1824.00
2024-04-30T01:54:52.649Z,1812.00
2024-04-30T01:55:52.773Z,1823.00
2024-04-30T01:56:52.648Z,1821.00
2024-04-30T01:57:52.689Z,1804.00
2024-04-30T01:58:52.790Z,1826.00
2024-04-30T01:59:52.728Z,1817.00
2024-04-30T02:00:52.746Z,1819.00
2024-04-30T02:01:52.780Z,1833.00
2024-04-30T02:02:52.707Z,1821.00
2024-04-30T02:03:52.824Z,1817.00
2024-04-30T02:04:54.027Z,1824.00
2024-04-30T02:05:52.818Z,1819.00
2024-04-30T02:06:52.777Z,1823.00
2024-04-30T02:07:52.853Z,1817.00
2024-04-30T02:08:52.827Z,1811.00
2024-04-30T02:09:52.898Z,1815.00
2024-04-30T02:10:52.888Z,1819.00
2024-04-30T02:11:52.888Z,1806.00
2024-04-30T02:12:52.886Z,1811.00
2024-04-30T02:13:52.941Z,1820.00
2024-04-30T02:14:52.910Z,1818.00
2024-04-30T02:15:52.959Z,1807.00
2024-04-30T02:16:53.007Z,1817.00
2024-04-30T02:17:52.944Z,1821.00
2024-04-30T02:18:53.026Z,1810.00
2024-04-30T02:19:52.966Z,1814.00
2024-04-30T02:20:52.968Z,1815.00
2024-04-30T02:21:53.042Z,1819.00
2024-04-30T02:22:53.005Z,1816.00
2024-04-30T02:23:53.010Z,1821.00
2024-04-30T02:24:52.998Z,1819.00
2024-04-30T02:25:53.012Z,1815.00
2024-04-30T02:26:53.019Z,1806.00
2024-04-30T02:27:53.016Z,1822.00
2024-04-30T02:28:53.031Z,1821.00
2024-04-30T02:29:53.127Z,1814.00
2024-04-30T02:30:53.088Z,1823.00
2024-04-30T02:31:53.078Z,1824.00
2024-04-30T02:32:53.212Z,1807.00
2024-04-30T02:33:53.101Z,1817.00
2024-04-30T02:34:53.140Z,1815.00
2024-04-30T02:35:53.249Z,1824.00
2024-04-30T02:36:53.198Z,1821.00
2024-04-30T02:37:53.195Z,1805.00
2024-04-30T02:38:53.196Z,1818.00
2024-04-30T02:39:53.202Z,1820.00
2024-04-30T02:40:53.338Z,1827.00
2024-04-30T02:41:53.289Z,1814.00
2024-04-30T02:42:53.281Z,1816.00
2024-04-30T02:43:53.298Z,1808.00
2024-04-30T02:44:53.364Z,1813.00
2024-04-30T02:45:53.312Z,1811.00
2024-04-30T02:46:53.372Z,1814.00
2024-04-30T02:47:53.431Z,1808.00
2024-04-30T02:48:53.418Z,1808.00
2024-04-30T02:49:53.442Z,1818.00
2024-04-30T02:50:53.456Z,1817.00
2024-04-30T02:51:53.449Z,1815.00
2024-04-30T02:52:53.515Z,1787.00
2024-04-30T02:53:53.494Z,1801.00
2024-04-30T02:54:53.528Z,1815.00
2024-04-30T02:55:53.528Z,1823.00
2024-04-30T02:56:53.535Z,1803.00
2024-04-30T02:57:53.539Z,1807.00
2024-04-30T02:58:53.598Z,1807.00
2024-04-30T02:59:53.578Z,1808.00
2024-04-30T03:00:53.658Z,1801.00
2024-04-30T03:01:53.690Z,1812.00
2024-04-30T03:02:53.672Z,1802.00
2024-04-30T03:03:53.691Z,1809.00
2024-04-30T03:04:53.700Z,1815.00
2024-04-30T03:05:53.684Z,1803.00
2024-04-30T03:06:53.761Z,1808.00
2024-04-30T03:07:53.764Z,1811.00
2024-04-30T03:08:53.752Z,1799.00
2024-04-30T03:09:53.839Z,1802.00
2024-04-30T03:10:53.847Z,1813.00
2024-04-30T03:11:53.826Z,1801.00
2024-04-30T03:12:53.839Z,1795.00
2024-04-30T03:13:53.882Z,1823.00
2024-04-30T03:14:53.928Z,1805.00
2024-04-30T03:15:53.891Z,1819.00
2024-04-30T03:16:53.902Z,1810.00
2024-04-30T03:17:54.015Z,1794.00
2024-04-30T03:18:54.011Z,1810.00
2024-04-30T03:19:54.004Z,1787.00
2024-04-30T03:20:54.024Z,1802.00
2024-04-30T03:21:54.077Z,1797.00
2024-04-30T03:22:54.089Z,1801.00
2024-04-30T03:23:54.138Z,1815.00
2024-04-30T03:24:54.158Z,1807.00
2024-04-30T03:25:54.162Z,1804.00
2024-04-30T03:26:54.220Z,1806.00
2024-04-30T03:27:54.218Z,1809.00
2024-04-30T03:28:54.335Z,1802.00
2024-04-30T03:29:54.230Z,1795.00
2024-04-30T03:30:54.273Z,1795.00
2024-04-30T03:31:54.329Z,1805.00
2024-04-30T03:32:54.417Z,1806.00
2024-04-30T03:33:54.453Z,1803.00
2024-04-30T03:34:54.416Z,1792.00
2024-04-30T03:35:54.490Z,1792.00
2024-04-30T03:36:54.457Z,1801.00
2024-04-30T03:37:54.531Z,1794.00
2024-04-30T03:38:54.496Z,1797.00
2024-04-30T03:39:54.540Z,1798.00
2024-04-30T03:40:54.614Z,1800.00
2024-04-30T03:41:54.582Z,1786.00
2024-04-30T03:42:54.748Z,1783.00
2024-04-30T03:43:54.684Z,1794.00
2024-04-30T03:44:54.768Z,1797.00
2024-04-30T03:45:54.705Z,1800.00
2024-04-30T03:46:54.818Z,1782.00
2024-04-30T03:47:54.844Z,1778.00
2024-04-30T03:48:54.814Z,1800.00
2024-04-30T03:49:56.453Z,1793.00
2024-04-30T03:50:54.838Z,1788.00
2024-04-30T03:51:54.788Z,1798.00
2024-04-30T03:52:54.895Z,1793.00
2024-04-30T03:53:54.841Z,1781.00
2024-04-30T03:54:54.804Z,1796.00
2024-04-30T03:55:54.853Z,1787.00
2024-04-30T03:56:54.815Z,1781.00
2024-04-30T03:57:54.824Z,1787.00
2024-04-30T03:58:54.828Z,1786.00
2024-04-30T03:59:54.813Z,1792.00
2024-04-30T04:00:54.981Z,1787.00
2024-04-30T04:01:54.821Z,1771.00
2024-04-30T04:02:54.861Z,1778.00
2024-04-30T04:03:54.866Z,1773.00
2024-04-30T04:04:54.886Z,1763.00
2024-04-30T04:05:54.818Z,1745.00
2024-04-30T04:06:54.822Z,1719.00
2024-04-30T04:07:54.840Z,1717.00
2024-04-30T04:08:54.962Z,1701.00
2024-04-30T04:09:54.835Z,1670.00
2024-04-30T04:10:54.852Z,1659.00
2024-04-30T04:11:55.035Z,1634.00
2024-04-30T04:12:54.884Z,1610.00
2024-04-30T04:13:54.837Z,1584.00
2024-04-30T04:14:54.848Z,1573.00
2024-04-30T04:15:54.899Z,1544.00
2024-04-30T04:16:54.825Z,1524.00
2024-04-30T04:17:54.935Z,1498.00
2024-04-30T04:18:54.847Z,1487.00
2024-04-30T04:19:54.858Z,1479.00
2024-04-30T04:21:02.125Z,600.00
2024-04-30T04:22:02.163Z,600.00
2024-04-30T04:23:02.125Z,600.00
2024-04-30T04:24:02.088Z,600.00
2024-04-30T04:25:02.139Z,600.00
2024-04-30T04:26:02.089Z,601.00
2024-04-30T04:27:02.162Z,604.00
2024-04-30T04:28:02.114Z,601.00
2024-04-30T04:29:02.134Z,600.00
2024-04-30T04:30:02.150Z,602.00
2024-04-30T04:31:09.355Z,600.00
2024-04-30T04:32:09.334Z,600.00
2024-04-30T04:33:09.375Z,600.00
2024-04-30T04:34:09.311Z,600.00
2024-04-30T04:35:09.314Z,600.00
2024-04-30T04:36:09.354Z,600.00
2024-04-30T04:37:09.363Z,599.00
2024-04-30T04:38:09.320Z,603.00
2024-04-30T04:39:09.373Z,603.00
2024-04-30T04:40:09.383Z,606.00
2024-04-30T04:41:09.417Z,601.00
2024-04-30T04:42:09.425Z,608.00
2024-04-30T04:43:09.985Z,607.00
2024-04-30T04:44:09.457Z,602.00
2024-04-30T04:45:09.561Z,600.00
2024-04-30T04:46:09.562Z,609.00
2024-04-30T04:47:09.668Z,611.00
2024-04-30T04:48:09.610Z,610.00
2024-04-30T04:49:09.619Z,613.00
2024-04-30T04:50:09.680Z,611.00
2024-04-30T04:51:09.636Z,615.00
2024-04-30T04:52:09.700Z,616.00
2024-04-30T04:53:09.709Z,612.00
2024-04-30T04:54:09.723Z,614.00
2024-04-30T04:55:09.736Z,618.00
2024-04-30T04:56:09.734Z,621.00
2024-04-30T04:57:09.740Z,613.00
2024-04-30T04:58:09.803Z,620.00
2024-04-30T04:59:09.851Z,623.00
2024-04-30T05:00:09.846Z,627.00
2024-04-30T05:01:12.653Z,624.00
2024-04-30T05:02:10.010Z,627.00
2024-04-30T05:03:09.843Z,622.00
2024-04-30T05:04:09.980Z,627.00
2024-04-30T05:05:09.835Z,625.00
2024-04-30T05:06:09.802Z,630.00
2024-04-30T05:07:09.871Z,631.00
2024-04-30T05:08:09.900Z,628.00
2024-04-30T05:09:09.868Z,632.00
2024-04-30T05:10:09.859Z,635.00
2024-04-30T05:11:09.838Z,636.00
2024-04-30T05:12:09.859Z,633.00
2024-04-30T05:13:09.871Z,633.00
2024-04-30T05:14:09.847Z,636.00
2024-04-30T05:15:09.850Z,639.00
2024-04-30T05:16:09.922Z,641.00
2024-04-30T05:17:09.934Z,641.00
2024-04-30T05:18:09.847Z,640.00
2024-04-30T05:19:09.835Z,646.00
2024-04-30T05:20:09.846Z,648.00
2024-04-30T05:21:09.839Z,646.00
2024-04-30T05:22:09.876Z,648.00
2024-04-30T05:23:09.856Z,652.00
2024-04-30T05:24:09.874Z,650.00
2024-04-30T05:25:09.891Z,650.00
2024-04-30T05:26:09.855Z,653.00
2024-04-30T05:27:09.889Z,653.00
2024-04-30T05:28:09.891Z,655.00
2024-04-30T05:29:09.857Z,651.00
2024-04-30T05:30:09.850Z,647.00
2024-04-30T05:31:09.906Z,640.00
2024-04-30T05:32:09.873Z,634.00
2024-04-30T05:33:09.931Z,624.00
2024-04-30T05:34:09.917Z,615.00
2024-04-30T05:35:09.866Z,611.00
2024-04-30T05:36:09.858Z,605.00
2024-04-30T05:37:09.896Z,603.00
2024-04-30T05:38:09.859Z,600.00
2024-04-30T05:39:09.912Z,615.00
2024-04-30T05:40:09.892Z,610.00
2024-04-30T05:41:09.912Z,609.00
2024-04-30T05:42:09.888Z,604.00
2024-04-30T05:43:09.884Z,600.00
2024-04-30T05:44:09.867Z,607.00
2024-04-30T05:45:12.586Z,608.00
2024-04-30T05:46:09.959Z,609.00
2024-04-30T05:47:10.936Z,615.00
2024-04-30T05:48:14.656Z,630.00
2024-04-30T05:49:10.045Z,610.00
2024-04-30T05:50:10.092Z,620.00
2024-04-30T05:51:09.911Z,639.00
2024-04-30T05:52:10.056Z,673.00
2024-04-30T05:53:09.880Z,765.00
2024-04-30T05:54:09.879Z,786.00
2024-04-30T05:55:10.048Z,793.00
2024-04-30T05:56:09.934Z,815.00
2024-04-30T05:57:10.013Z,818.00
2024-04-30T05:58:10.065Z,842.00
2024-04-30T05:59:09.889Z,863.00
2024-04-30T06:00:09.909Z,883.00
2024-04-30T06:01:10.258Z,901.00
2024-04-30T06:02:10.310Z,918.00
2024-04-30T06:03:10.318Z,932.00
2024-04-30T06:04:09.987Z,949.00
2024-04-30T06:05:10.189Z,964.00
2024-04-30T06:06:10.127Z,990.00
2024-04-30T06:07:10.344Z,995.00
2024-04-30T06:08:10.182Z,1014.00
2024-04-30T06:09:10.115Z,1030.00
2024-04-30T06:10:10.223Z,1048.00
2024-04-30T06:11:10.257Z,1069.00
2024-04-30T06:12:10.537Z,1082.00
2024-04-30T06:13:10.359Z,1107.00
2024-04-30T06:14:10.344Z,1121.00
2024-04-30T06:15:10.389Z,1124.00
2024-04-30T06:16:10.535Z,1130.00
2024-04-30T06:17:10.679Z,1144.00
2024-04-30T06:18:10.497Z,1165.00
2024-04-30T06:19:10.473Z,1169.00
2024-04-30T06:20:10.593Z,1171.00
2024-04-30T06:21:12.101Z,1171.00
2024-04-30T06:22:10.630Z,1186.00
2024-04-30T06:23:10.600Z,1179.00
2024-04-30T06:24:11.015Z,1189.00
2024-04-30T06:25:10.668Z,1190.00
2024-04-30T06:26:10.685Z,1193.00
2024-04-30T06:27:11.010Z,1193.00
2024-04-30T06:28:10.743Z,1206.00
2024-04-30T06:29:10.737Z,1207.00
2024-04-30T06:30:10.758Z,1220.00
2024-04-30T06:31:10.931Z,1222.00
2024-04-30T06:32:10.926Z,1214.00
2024-04-30T06:33:13.580Z,1223.00
2024-04-30T06:34:10.902Z,1227.00
2024-04-30T06:35:10.813Z,1229.00
2024-04-30T06:36:10.790Z,1233.00
2024-04-30T06:37:10.828Z,1237.00
2024-04-30T06:38:10.794Z,1235.00
2024-04-30T06:39:10.772Z,1240.00
2024-04-30T06:40:10.895Z,1244.00
2024-04-30T06:41:10.795Z,1239.00
2024-04-30T06:42:10.830Z,1252.00
2024-04-30T06:43:10.841Z,1260.00
2024-04-30T06:44:10.779Z,1254.00
2024-04-30T06:45:11.083Z,1257.00
2024-04-30T06:46:17.711Z,1263.00
2024-04-30T06:47:11.019Z,1264.00
2024-04-30T06:48:11.213Z,1265.00
2024-04-30T06:49:11.120Z,1267.00
2024-04-30T06:50:10.862Z,1276.00
2024-04-30T06:51:10.802Z,1276.00
2024-04-30T06:52:11.257Z,1274.00
2024-04-30T06:53:11.053Z,1280.00
2024-04-30T06:54:10.824Z,1276.00
2024-04-30T06:55:11.128Z,1269.00
2024-04-30T06:56:10.954Z,1266.00
2024-04-30T06:57:11.013Z,1263.00
2024-04-30T06:58:10.874Z,1263.00
2024-04-30T06:59:10.845Z,1262.00
2024-04-30T07:00:10.872Z,1266.00
2024-04-30T07:01:10.836Z,1261.00
2024-04-30T07:02:10.822Z,1256.00
2024-04-30T07:03:10.923Z,1258.00
2024-04-30T07:04:10.904Z,1262.00
2024-04-30T07:05:10.956Z,1264.00
2024-04-30T07:06:10.852Z,1263.00
2024-04-30T07:07:10.852Z,1270.00
2024-04-30T07:08:10.857Z,1264.00
2024-04-30T07:09:10.830Z,1265.00
2024-04-30T07:10:10.929Z,1265.00
2024-04-30T07:11:11.057Z,1250.00
2024-04-30T07:12:11.280Z,1255.00
2024-04-30T07:13:11.120Z,1254.00
2024-04-30T07:14:11.149Z,1256.00
2024-04-30T07:15:11.380Z,1247.00
2024-04-30T07:16:11.487Z,1240.00
2024-04-30T07:17:11.525Z,1226.00
2024-04-30T07:18:11.596Z,1228.00
2024-04-30T07:19:11.589Z,1220.00
2024-04-30T07:20:11.612Z,1222.00
2024-04-30T07:21:11.628Z,1218.00
2024-04-30T07:22:11.796Z,1217.00
2024-04-30T07:23:11.788Z,1209.00
2024-04-30T07:24:12.051Z,1211.00
2024-04-30T07:25:12.043Z,1220.00
2024-04-30T07:26:13.321Z,1229.00
2024-04-30T07:27:11.997Z,1231.00
2024-04-30T07:28:12.053Z,1222.00
2024-04-30T07:29:12.047Z,1212.00
2024-04-30T07:30:12.204Z,1214.00
2024-04-30T07:31:12.016Z,1217.00
2024-04-30T07:32:11.966Z,1221.00
2024-04-30T07:33:12.049Z,1149.00
2024-04-30T07:34:12.003Z,1083.00
2024-04-30T07:35:12.157Z,1001.00
2024-04-30T07:36:12.024Z,872.00
2024-04-30T07:37:11.981Z,780.00
2024-04-30T07:38:12.560Z,713.00
2024-04-30T07:39:11.996Z,664.00
2024-04-30T07:40:12.661Z,642.00
2024-04-30T07:41:11.995Z,634.00
2024-04-30T07:42:11.974Z,625.00
2024-04-30T07:43:18.595Z,624.00
2024-04-30T07:44:12.071Z,624.00
2024-04-30T07:45:12.285Z,624.00
2024-04-30T07:46:12.532Z,622.00
2024-04-30T07:47:12.369Z,619.00
2024-04-30T07:48:12.081Z,611.00
2024-04-30T07:49:12.238Z,611.00
2024-04-30T07:50:12.115Z,609.00
2024-04-30T07:51:11.993Z,609.00
2024-04-30T07:52:12.063Z,611.00
2024-04-30T07:53:12.132Z,615.00
2024-04-30T07:54:12.024Z,617.00
2024-04-30T07:55:12.627Z,619.00
2024-04-30T07:56:11.991Z,626.00
2024-04-30T07:57:11.998Z,628.00
2024-04-30T07:58:12.079Z,631.00
2024-04-30T07:59:12.004Z,633.00
2024-04-30T08:00:12.463Z,641.00
2024-04-30T08:01:12.126Z,645.00
2024-04-30T08:02:14.672Z,645.00
2024-04-30T08:03:12.103Z,645.00
2024-04-30T08:04:12.180Z,645.00
2024-04-30T08:05:12.021Z,644.00
2024-04-30T08:06:18.612Z,645.00
2024-04-30T08:07:13.060Z,645.00
2024-04-30T08:08:12.057Z,639.00
2024-04-30T08:09:12.240Z,637.00
2024-04-30T08:10:15.110Z,640.00
2024-04-30T08:11:13.738Z,631.00
2024-04-30T08:12:12.364Z,632.00
2024-04-30T08:13:12.036Z,630.00
2024-04-30T08:14:12.323Z,620.00
2024-04-30T08:15:12.318Z,621.00
2024-04-30T08:16:12.116Z,623.00
2024-04-30T08:17:12.095Z,613.00
2024-04-30T08:18:12.067Z,606.00
2024-04-30T08:19:17.599Z,602.00
2024-04-30T08:20:18.186Z,599.00
2024-04-30T08:21:13.102Z,602.00
2024-04-30T08:22:12.090Z,603.00
2024-04-30T08:23:12.189Z,598.00
2024-04-30T08:24:12.066Z,588.00
2024-04-30T08:25:12.083Z,593.00
2024-04-30T08:26:12.575Z,600.00
2024-04-30T08:27:12.069Z,605.00
2024-04-30T08:28:12.221Z,600.00
2024-04-30T08:29:12.100Z,602.00
2024-04-30T08:30:12.098Z,602.00
2024-04-30T08:31:12.643Z,601.00
2024-04-30T08:32:12.107Z,600.00
2024-04-30T08:33:16.368Z,600.00
2024-04-30T08:34:12.791Z,592.00
2024-04-30T08:35:12.582Z,577.00
2024-04-30T08:36:12.071Z,566.00
2024-04-30T08:37:12.100Z,555.00
2024-04-30T08:38:12.151Z,548.00
2024-04-30T08:39:12.276Z,564.00
2024-04-30T08:40:12.861Z,588.00
2024-04-30T08:41:12.287Z,600.00
2024-04-30T08:42:12.102Z,601.00
2024-04-30T08:43:12.192Z,600.00
2024-04-30T08:44:12.107Z,600.00
2024-04-30T08:45:13.108Z,600.00
2024-04-30T08:46:12.451Z,600.00
2024-04-30T08:47:12.784Z,601.00
2024-04-30T08:48:12.464Z,599.00
2024-04-30T08:49:20.386Z,601.00
2024-04-30T08:50:16.344Z,601.00
2024-04-30T08:51:12.408Z,601.00
2024-04-30T08:52:12.135Z,603.00
2024-04-30T08:53:13.292Z,610.00
2024-04-30T08:54:12.811Z,620.00
2024-04-30T08:55:12.129Z,635.00
2024-04-30T08:56:12.234Z,639.00
2024-04-30T08:57:12.104Z,651.00
2024-04-30T08:58:12.283Z,661.00
2024-04-30T08:59:17.648Z,667.00
2024-04-30T09:00:12.420Z,668.00
2024-04-30T09:01:12.701Z,675.00
2024-04-30T09:02:12.482Z,690.00
2024-04-30T09:03:12.568Z,728.00
2024-04-30T09:04:12.744Z,777.00
2024-04-30T09:05:12.636Z,794.00
2024-04-30T09:06:12.578Z,813.00
2024-04-30T09:07:12.667Z,834.00
2024-04-30T09:08:13.620Z,858.00
2024-04-30T09:09:15.837Z,870.00
2024-04-30T09:10:13.129Z,887.00
2024-04-30T09:11:13.199Z,894.00
2024-04-30T09:12:12.776Z,906.00
2024-04-30T09:13:12.735Z,925.00
2024-04-30T09:14:12.737Z,885.00
2024-04-30T09:15:12.882Z,818.00
2024-04-30T09:16:13.114Z,787.00
2024-04-30T09:17:12.841Z,769.00
2024-04-30T09:18:12.867Z,746.00
2024-04-30T09:19:12.743Z,744.00
2024-04-30T09:20:12.717Z,743.00
2024-04-30T09:21:17.200Z,761.00
2024-04-30T09:22:14.344Z,762.00
2024-04-30T09:23:13.124Z,764.00
2024-04-30T09:24:13.930Z,775.00
2024-04-30T09:25:12.831Z,782.00
2024-04-30T09:26:12.806Z,804.00
2024-04-30T09:27:13.004Z,763.00
2024-04-30T09:28:12.814Z,723.00
2024-04-30T09:29:13.107Z,708.00
2024-04-30T09:30:12.907Z,689.00
2024-04-30T09:31:12.931Z,686.00
2024-04-30T09:32:12.857Z,677.00
2024-04-30T09:33:12.897Z,667.00
2024-04-30T09:34:13.343Z,676.00
2024-04-30T09:35:12.721Z,671.00
2024-04-30T09:36:14.331Z,664.00
2024-04-30T09:37:12.810Z,664.00
2024-04-30T09:38:13.125Z,662.00
2024-04-30T09:39:13.193Z,655.00
2024-04-30T09:40:12.895Z,638.00
2024-04-30T09:41:12.819Z,634.00
2024-04-30T09:42:12.804Z,623.00
2024-04-30T09:43:13.104Z,621.00
2024-04-30T09:44:12.780Z,608.00
2024-04-30T09:45:12.805Z,600.00
2024-04-30T09:46:12.807Z,600.00
2024-04-30T09:47:12.831Z,602.00
2024-04-30T09:48:13.126Z,600.00
2024-04-30T09:49:12.823Z,607.00
2024-04-30T09:50:13.369Z,600.00
2024-04-30T09:51:23.801Z,604.00
2024-04-30T09:52:12.819Z,605.00
2024-04-30T09:53:13.127Z,605.00
2024-04-30T09:54:12.901Z,595.00
2024-04-30T09:55:13.504Z,590.00
2024-04-30T09:56:13.189Z,581.00
2024-04-30T09:57:13.106Z,600.00
2024-04-30T09:58:13.162Z,600.00
2024-04-30T09:59:13.109Z,600.00
2024-04-30T10:00:13.084Z,600.00
2024-04-30T10:01:13.332Z,601.00
2024-04-30T10:02:13.215Z,600.00
2024-04-30T10:03:13.102Z,600.00
2024-04-30T10:04:13.448Z,604.00
2024-04-30T10:05:13.301Z,602.00
2024-04-30T10:06:13.203Z,601.00
2024-04-30T10:07:13.341Z,601.00
2024-04-30T10:08:13.317Z,600.00
2024-04-30T10:09:13.395Z,600.00
2024-04-30T10:10:13.473Z,602.00
2024-04-30T10:11:13.630Z,610.00
2024-04-30T10:12:13.534Z,608.00
2024-04-30T10:13:13.626Z,611.00
2024-04-30T10:14:14.095Z,604.00
2024-04-30T10:15:13.723Z,603.00
2024-04-30T10:16:14.211Z,610.00
2024-04-30T10:17:37.972Z,620.00
2024-04-30T10:18:13.846Z,621.00
2024-04-30T10:19:13.901Z,624.00
2024-04-30T10:20:13.871Z,626.00
2024-04-30T10:21:14.065Z,625.00
2024-04-30T10:22:13.860Z,631.00
2024-04-30T10:23:13.875Z,612.00
2024-04-30T10:24:13.891Z,602.00
2024-04-30T10:25:13.929Z,601.00
2024-04-30T10:26:13.895Z,602.00
2024-04-30T10:27:13.865Z,605.00
2024-04-30T10:28:14.011Z,606.00
2024-04-30T10:29:13.848Z,625.00
2024-04-30T10:30:13.859Z,619.00
2024-04-30T10:31:13.892Z,633.00
2024-04-30T10:32:13.887Z,642.00
2024-04-30T10:33:13.938Z,646.00
2024-04-30T10:34:13.951Z,656.00
2024-04-30T10:35:30.295Z,664.00
2024-04-30T10:36:13.877Z,664.00
2024-04-30T10:37:14.102Z,670.00
2024-04-30T10:38:14.014Z,688.00
2024-04-30T10:39:14.006Z,719.00
2024-04-30T10:40:13.864Z,715.00
2024-04-30T10:41:13.857Z,733.00
2024-04-30T10:42:13.866Z,704.00
2024-04-30T10:43:18.477Z,705.00
2024-04-30T10:44:13.919Z,705.00
2024-04-30T10:45:13.936Z,708.00
2024-04-30T10:46:13.965Z,710.00
2024-04-30T10:47:13.920Z,713.00
2024-04-30T10:48:13.954Z,741.00
2024-04-30T10:49:13.980Z,765.00
2024-04-30T10:50:18.807Z,779.00
2024-04-30T10:51:14.904Z,780.00
2024-04-30T10:52:13.937Z,738.00
2024-04-30T10:53:13.909Z,732.00
2024-04-30T10:54:14.124Z,722.00
2024-04-30T10:55:13.957Z,720.00
2024-04-30T10:56:14.149Z,736.00
2024-04-30T10:57:13.958Z,729.00
2024-04-30T10:58:14.102Z,751.00
2024-04-30T10:59:14.063Z,753.00
2024-04-30T11:00:14.064Z,763.00
2024-04-30T11:01:14.173Z,757.00
2024-04-30T11:02:14.191Z,745.00
2024-04-30T11:03:19.387Z,738.00
2024-04-30T11:04:15.475Z,739.00
2024-04-30T11:05:14.910Z,745.00
2024-04-30T11:06:14.457Z,743.00
2024-04-30T11:07:14.847Z,720.00
2024-04-30T11:08:14.243Z,732.00
2024-04-30T11:09:14.368Z,756.00
2024-04-30T11:10:14.658Z,755.00
2024-04-30T11:11:14.377Z,769.00
2024-04-30T11:12:14.418Z,783.00
2024-04-30T11:13:14.986Z,785.00
2024-04-30T11:14:15.223Z,814.00
2024-04-30T11:15:14.544Z,805.00
2024-04-30T11:16:16.490Z,832.00
2024-04-30T11:17:14.619Z,847.00
2024-04-30T11:18:15.172Z,833.00
2024-04-30T11:19:14.757Z,865.00
2024-04-30T11:20:14.745Z,851.00
2024-04-30T11:21:14.819Z,833.00
2024-04-30T11:22:15.030Z,806.00
2024-04-30T11:23:15.233Z,792.00
2024-04-30T11:24:15.119Z,766.00
2024-04-30T11:25:15.159Z,774.00
2024-04-30T11:26:15.265Z,790.00
2024-04-30T11:27:15.266Z,801.00
2024-04-30T11:28:15.094Z,814.00
2024-04-30T11:29:24.125Z,806.00
2024-04-30T11:30:15.271Z,806.00
2024-04-30T11:31:15.282Z,809.00
2024-04-30T11:32:15.148Z,813.00
2024-04-30T11:33:15.216Z,817.00
2024-04-30T11:34:15.163Z,824.00
2024-04-30T11:35:15.139Z,822.00
2024-04-30T11:36:15.135Z,822.00
2024-04-30T11:37:18.055Z,818.00
2024-04-30T11:38:15.945Z,833.00
2024-04-30T11:39:15.355Z,832.00
2024-04-30T11:40:15.225Z,851.00
2024-04-30T11:41:15.133Z,858.00
2024-04-30T11:42:21.062Z,861.00
2024-04-30T11:43:16.444Z,862.00
2024-04-30T11:44:15.398Z,864.00
2024-04-30T11:46:15.490Z,888.00
2024-04-30T11:47:15.167Z,899.00
2024-04-30T11:48:15.362Z,906.00
2024-04-30T11:49:15.211Z,900.00
2024-04-30T11:50:15.155Z,911.00
2024-04-30T11:51:15.197Z,880.00
2024-04-30T11:52:15.257Z,881.00
2024-04-30T11:53:15.334Z,868.00
2024-04-30T11:54:15.155Z,874.00
2024-04-30T11:55:15.211Z,881.00
2024-04-30T11:56:15.257Z,908.00
2024-04-30T11:57:15.353Z,913.00
2024-04-30T11:58:15.372Z,917.00
2024-04-30T11:59:15.404Z,923.00
2024-04-30T12:00:15.400Z,934.00
2024-04-30T12:01:15.594Z,931.00
2024-04-30T12:02:15.568Z,943.00
2024-04-30T12:03:15.587Z,843.00
2024-04-30T12:04:15.619Z,713.00
2024-04-30T12:05:15.679Z,637.00
2024-04-30T12:06:15.670Z,597.00
2024-04-30T12:07:17.897Z,598.00
2024-04-30T12:08:15.724Z,600.00
2024-04-30T12:09:15.779Z,601.00
2024-04-30T12:10:15.983Z,611.00
2024-04-30T12:11:15.926Z,617.00
2024-04-30T12:12:15.943Z,633.00
2024-04-30T12:13:15.962Z,651.00
2024-04-30T12:14:15.976Z,660.00
2024-04-30T12:15:16.012Z,687.00
2024-04-30T12:16:16.098Z,719.00
2024-04-30T12:17:16.185Z,763.00
2024-04-30T12:18:16.113Z,799.00
2024-04-30T12:19:16.207Z,834.00